LGST Airport Information

Runway Information
Runway 05 Length 6804 ft width 148 ft
Elevation 376 ft Threshold 0 ft Heading 51
Runway 23 Length 6804 ft Width 148 ft
Elevation 316 ft Threshold 0 ft Heading 231
Airport Frequencies
Type A/G Name RDO Frequency 563.7 MHZ
Type AFIS Name INFO Frequency 122.6 MHZ
Airport Navaids
Type VOR-DME Name Sitia Frequency 112900 KHZ
Type VOR-DME Name Sitia Frequency 113300 KHZ
Airport Weather Information & NOTAM
ADDS - METARS form results

(1055 UTC 24 April 2019)
Data provider http://aviationweather.gov/metar/data/
 
Forecast for: LGST (SITIA AIRPORT , GR)
Text: TAF LGST 240800Z 2409/2418 17017KT 9999 FEW020 SCT080
Forecast period: 0900 to 1800 UTC 24 April 2019
Forecast type: FROM: standard forecast or significant change
Winds: from the S (170 degrees) at 20 MPH (17 knots; 8.7 m/s)
Visibility: 6 or more miles 10+ km)
Ceiling: at least 12,000 feet AGL
Clouds: few clouds at 2000 feet AGL
scattered clouds at 8000 feet AGL
Weather: no significant weather forecast for this period
Text: TEMPO 2409/2412 17017G27KT
Forecast period: 0900 to 1200 UTC 24 April 2019
Forecast type: TEMPORARY: The following changes expected for less than half the time period
Winds: from the S (170 degrees) at 20 MPH (17 knots; 8.7 m/s)
gusting to 31 MPH (27 knots; 13.9 m/s)
Visibility: missing
Ceiling: unknown
Clouds: missing
Weather: no significant weather forecast for this period